Time;durP1;ratioP1;P1;durP2;ratioP2;P2;SDS_P1;SDS_P2;PMS_P1;PMS_P2;Temp;Humidity;BMP_temperature;BMP_pressure;BME280_temperature;BME280_humidity;BME280_pressure;Samples;Min_cycle;Max_cycle;Signal;HPM_P1;HPM_P2
2021/04/01 00:00:54;;;;;;;6.50;2.90;;;7.30;99.90;;;;;;2089094;28;20188;-70
2021/04/01 00:01:54;;;;;;;5.85;2.80;;;7.30;99.90;;;;;;2081643;28;20268;-69
2021/04/01 00:02:55;;;;;;;9.13;3.13;;;7.40;99.90;;;;;;2081556;28;20195;-69
2021/04/01 00:03:56;;;;;;;5.07;2.53;;;7.30;99.90;;;;;;2090325;28;20185;-69
2021/04/01 00:04:57;;;;;;;6.43;2.60;;;7.30;99.90;;;;;;2090369;28;20203;-70
2021/04/01 00:05:58;;;;;;;5.45;2.78;;;7.40;99.90;;;;;;2090320;28;20184;-69
2021/04/01 00:06:59;;;;;;;4.93;2.60;;;7.40;99.90;;;;;;2090376;28;20218;-70
2021/04/01 00:07:59;;;;;;;6.07;2.57;;;7.30;99.90;;;;;;2090351;28;20192;-70
2021/04/01 00:09:00;;;;;;;6.83;2.87;;;7.30;99.90;;;;;;2089785;28;20234;-69
2021/04/01 00:10:06;;;;;;;5.53;2.60;;;7.30;99.90;;;;;;2081404;28;20176;-70
2021/04/01 00:11:08;;;;;;;6.47;2.92;;;7.30;99.90;;;;;;2081491;28;20518;-70
2021/04/01 00:12:10;;;;;;;4.47;2.70;;;7.20;99.90;;;;;;2089945;28;20188;-70
2021/04/01 00:13:11;;;;;;;8.60;3.00;;;7.20;99.90;;;;;;2089942;28;20178;-70
2021/04/01 00:14:12;;;;;;;5.85;2.67;;;7.20;99.90;;;;;;2081388;28;20179;-69
2021/04/01 00:15:14;;;;;;;4.57;2.60;;;7.20;99.90;;;;;;2081486;28;20267;-70
2021/04/01 00:16:18;;;;;;;7.50;2.85;;;7.20;99.90;;;;;;2090195;28;20210;-69
2021/04/01 00:17:19;;;;;;;6.38;3.00;;;7.20;99.90;;;;;;2090322;28;20181;-69
2021/04/01 00:18:21;;;;;;;4.17;2.70;;;7.20;99.90;;;;;;2090066;28;20211;-71
2021/04/01 00:19:21;;;;;;;5.15;3.00;;;7.10;99.90;;;;;;2090373;28;20182;-69
2021/04/01 00:20:22;;;;;;;5.97;2.97;;;7.10;99.90;;;;;;2090060;28;20655;-69
2021/04/01 00:21:23;;;;;;;6.00;2.67;;;7.10;99.90;;;;;;2090006;28;20184;-69
2021/04/01 00:22:23;;;;;;;5.77;2.80;;;7.10;99.90;;;;;;2090550;28;20680;-70
2021/04/01 00:23:25;;;;;;;4.40;2.63;;;7.10;99.90;;;;;;2090377;28;20190;-70
2021/04/01 00:24:25;;;;;;;4.40;2.97;;;7.10;99.90;;;;;;2090133;28;20686;-70
2021/04/01 00:25:26;;;;;;;5.50;2.60;;;7.10;99.90;;;;;;2089858;28;20192;-70
2021/04/01 00:26:27;;;;;;;4.67;2.83;;;7.20;99.90;;;;;;2089334;28;20184;-70
2021/04/01 00:27:28;;;;;;;9.33;2.77;;;7.10;99.90;;;;;;2089864;28;20191;-70
2021/04/01 00:28:28;;;;;;;4.77;2.77;;;7.10;99.90;;;;;;2089395;28;20188;-70
2021/04/01 00:29:29;;;;;;;6.30;2.97;;;7.10;99.90;;;;;;2090421;28;20190;-70
2021/04/01 00:30:30;;;;;;;5.27;2.93;;;7.10;99.90;;;;;;2089921;28;20245;-69
2021/04/01 00:31:30;;;;;;;6.50;3.00;;;7.10;99.90;;;;;;2089324;28;20226;-69
2021/04/01 00:32:31;;;;;;;5.70;2.97;;;7.10;99.90;;;;;;2089958;28;20177;-70
2021/04/01 00:33:32;;;;;;;4.50;2.60;;;7.10;99.90;;;;;;2090181;28;20184;-70
2021/04/01 00:34:32;;;;;;;5.23;2.80;;;7.10;99.90;;;;;;2089140;28;20646;-69
2021/04/01 00:35:33;;;;;;;4.97;2.73;;;7.10;99.90;;;;;;2089616;28;20279;-70
2021/04/01 00:36:34;;;;;;;5.10;2.80;;;7.10;99.90;;;;;;2089822;28;20179;-70
2021/04/01 00:37:35;;;;;;;4.33;2.80;;;7.10;99.90;;;;;;2090139;28;20199;-70
2021/04/01 00:38:36;;;;;;;4.07;2.73;;;7.10;99.90;;;;;;2089867;28;20176;-69
2021/04/01 00:39:36;;;;;;;5.77;3.50;;;7.00;99.90;;;;;;2090156;28;20203;-70
2021/04/01 00:40:37;;;;;;;5.00;2.97;;;7.00;99.90;;;;;;2089960;28;20182;-69
2021/04/01 00:41:40;;;;;;;4.73;2.90;;;7.00;99.90;;;;;;2089622;28;20585;-70
2021/04/01 00:42:41;;;;;;;5.03;3.10;;;7.00;99.90;;;;;;2080985;28;20188;-70
2021/04/01 00:43:42;;;;;;;8.98;3.30;;;7.00;99.90;;;;;;2081539;28;20180;-69
2021/04/01 00:44:43;;;;;;;7.47;3.07;;;7.00;99.90;;;;;;2090019;28;20199;-70
2021/04/01 00:45:43;;;;;;;6.00;3.05;;;7.00;99.90;;;;;;2089692;28;20811;-70
2021/04/01 00:46:48;;;;;;;6.77;3.00;;;7.00;99.90;;;;;;2089726;28;20186;-70
2021/04/01 00:47:52;;;;;;;7.55;2.80;;;7.00;99.90;;;;;;2089998;28;20716;-69
2021/04/01 00:48:52;;;;;;;5.18;3.33;;;7.00;99.90;;;;;;2090215;28;20211;-70
2021/04/01 00:49:53;;;;;;;4.10;2.63;;;6.90;99.90;;;;;;2090293;28;20627;-70
2021/04/01 00:50:54;;;;;;;7.43;2.63;;;6.90;99.90;;;;;;2089321;28;20260;-69
2021/04/01 00:51:54;;;;;;;7.27;3.10;;;7.00;99.90;;;;;;2090210;28;20206;-70
2021/04/01 00:52:56;;;;;;;5.87;2.80;;;6.90;99.90;;;;;;2089969;28;20180;-69
2021/04/01 00:53:56;;;;;;;5.43;2.97;;;7.00;99.90;;;;;;2089630;28;20220;-70
2021/04/01 00:54:57;;;;;;;4.80;2.60;;;6.90;99.90;;;;;;2089446;28;20195;-69
2021/04/01 00:55:58;;;;;;;4.60;3.00;;;6.90;99.90;;;;;;2090203;28;20183;-70
2021/04/01 00:56:59;;;;;;;5.95;3.00;;;6.90;99.90;;;;;;2090082;28;20245;-69
2021/04/01 00:58:02;;;;;;;4.85;2.85;;;6.90;99.90;;;;;;2089872;28;20181;-70
2021/04/01 00:59:04;;;;;;;6.45;2.70;;;6.90;99.90;;;;;;2089463;28;20187;-70
2021/04/01 01:00:10;;;;;;;3.92;2.47;;;6.90;99.90;;;;;;2089441;28;20191;-70
2021/04/01 01:02:30;;;;;;;5.20;2.65;;;6.90;99.90;;;;;;2090158;28;20184;-70
2021/04/01 01:03:30;;;;;;;6.47;3.00;;;6.90;99.90;;;;;;2090006;28;20261;-69
2021/04/01 01:04:32;;;;;;;7.57;2.87;;;6.90;99.90;;;;;;2080922;28;20240;-70
2021/04/01 01:05:35;;;;;;;5.45;2.70;;;6.90;99.90;;;;;;2081238;28;20196;-69
2021/04/01 01:06:36;;;;;;;5.10;2.88;;;6.90;99.90;;;;;;2081151;28;20195;-69
2021/04/01 01:07:37;;;;;;;8.63;2.80;;;6.90;99.90;;;;;;2073027;28;20638;-69
2021/04/01 01:08:38;;;;;;;4.65;2.80;;;6.90;99.90;;;;;;2081194;28;20185;-70
2021/04/01 01:09:39;;;;;;;5.53;2.47;;;6.90;99.90;;;;;;2089174;28;20514;-70
2021/04/01 01:10:39;;;;;;;9.27;2.70;;;6.90;99.90;;;;;;2089916;28;20203;-70
2021/04/01 01:11:41;;;;;;;5.10;2.90;;;6.90;99.90;;;;;;2089111;28;20179;-70
2021/04/01 01:12:42;;;;;;;7.93;2.83;;;6.90;99.90;;;;;;2089799;28;20171;-70
2021/04/01 01:13:43;;;;;;;7.13;2.45;;;6.90;99.90;;;;;;2090010;28;20207;-69
2021/04/01 01:14:44;;;;;;;8.60;2.87;;;6.90;99.90;;;;;;2089614;28;20206;-70
2021/04/01 01:15:45;;;;;;;4.57;3.03;;;6.90;99.90;;;;;;2089354;28;20207;-69
2021/04/01 01:16:47;;;;;;;6.80;2.90;;;6.90;99.90;;;;;;2080860;28;20229;-69
2021/04/01 01:17:51;;;;;;;6.68;2.80;;;6.90;99.90;;;;;;2081472;28;20185;-70
2021/04/01 01:18:51;;;;;;;6.03;3.40;;;6.80;99.90;;;;;;2089853;28;20194;-69
2021/04/01 01:19:53;;;;;;;4.93;2.53;;;6.80;99.90;;;;;;2081028;28;20187;-69
2021/04/01 01:21:01;;;;;;;6.90;2.63;;;6.80;99.90;;;;;;2080334;28;20717;-69
2021/04/01 01:22:06;;;;;;;4.38;2.70;;;6.70;99.90;;;;;;2089846;28;20201;-70
2021/04/01 01:23:08;;;;;;;6.95;2.88;;;6.70;99.90;;;;;;2089697;28;20171;-70
2021/04/01 01:24:14;;;;;;;4.32;2.60;;;6.70;99.90;;;;;;2089654;28;20553;-69
2021/04/01 01:25:15;;;;;;;3.88;2.42;;;6.70;99.90;;;;;;2089959;28;20214;-70
2021/04/01 01:26:17;;;;;;;5.13;2.60;;;6.70;99.90;;;;;;2080787;28;20237;-70
2021/04/01 01:27:20;;;;;;;5.28;2.90;;;6.70;99.90;;;;;;2081436;28;20194;-70
2021/04/01 01:28:22;;;;;;;6.15;3.10;;;6.70;99.90;;;;;;2090010;28;20183;-69
2021/04/01 01:29:23;;;;;;;4.63;2.75;;;6.80;99.90;;;;;;2081126;28;20884;-69
2021/04/01 01:30:24;;;;;;;8.48;2.95;;;6.80;99.90;;;;;;2081163;28;20192;-69
2021/04/01 01:31:25;;;;;;;9.60;3.03;;;6.80;99.90;;;;;;2088735;28;20175;-69
2021/04/01 01:32:35;;;;;;;6.97;2.87;;;6.80;99.90;;;;;;2090020;28;20262;-69
2021/04/01 01:33:41;;;;;;;7.72;3.30;;;6.70;99.90;;;;;;2089937;28;20163;-69
2021/04/01 01:34:43;;;;;;;9.32;3.08;;;6.70;99.90;;;;;;2089636;28;20211;-69
2021/04/01 01:35:46;;;;;;;5.85;2.70;;;6.70;99.90;;;;;;2089272;28;20660;-70
2021/04/01 01:36:47;;;;;;;4.80;2.67;;;6.70;99.90;;;;;;2079369;28;20191;-69
2021/04/01 01:38:00;;;;;;;5.63;2.83;;;6.70;99.90;;;;;;2081210;28;20646;-69
2021/04/01 01:39:01;;;;;;;6.03;2.80;;;6.60;99.90;;;;;;2089684;28;20164;-69
2021/04/01 01:40:03;;;;;;;9.97;3.33;;;6.60;99.90;;;;;;2089153;28;20240;-70
2021/04/01 01:41:05;;;;;;;5.68;2.95;;;6.60;99.90;;;;;;2088410;28;20267;-70
2021/04/01 01:42:07;;;;;;;6.07;2.72;;;6.60;99.90;;;;;;2114345;22;20674;-67
2021/04/01 01:43:14;;;;;;;7.13;2.83;;;6.60;99.90;;;;;;2086979;28;20205;-67
2021/04/01 01:44:15;;;;;;;6.13;2.70;;;6.60;99.90;;;;;;2089754;28;20176;-67
2021/04/01 01:45:17;;;;;;;10.27;3.00;;;6.60;99.90;;;;;;2089716;28;20286;-67
2021/04/01 01:46:17;;;;;;;7.18;3.00;;;6.60;99.90;;;;;;2089639;28;20182;-67
2021/04/01 01:47:18;;;;;;;5.37;3.20;;;6.60;99.90;;;;;;2089650;28;20191;-66
2021/04/01 01:48:19;;;;;;;5.25;2.67;;;6.60;99.90;;;;;;2080613;28;20176;-66
2021/04/01 01:49:20;;;;;;;10.40;3.07;;;6.60;99.90;;;;;;2080695;28;20211;-66
2021/04/01 01:50:24;;;;;;;6.63;3.00;;;6.60;99.90;;;;;;2089627;28;20193;-66
2021/04/01 01:51:28;;;;;;;5.93;3.00;;;6.60;99.90;;;;;;2088901;28;20260;-68
2021/04/01 01:52:28;;;;;;;5.18;2.78;;;6.60;99.90;;;;;;2089690;28;20205;-67
2021/04/01 01:53:29;;;;;;;8.07;3.27;;;6.60;99.90;;;;;;2089525;28;20171;-67
2021/04/01 01:54:30;;;;;;;4.17;2.80;;;6.60;99.90;;;;;;2089684;28;20173;-67
2021/04/01 01:55:32;;;;;;;5.90;3.30;;;6.60;99.90;;;;;;2089488;28;20176;-66
2021/04/01 01:56:34;;;;;;;4.70;2.90;;;6.70;99.90;;;;;;2089611;28;20175;-66
2021/04/01 01:57:36;;;;;;;7.68;2.70;;;6.70;99.90;;;;;;2089340;28;20210;-66
2021/04/01 01:58:37;;;;;;;7.10;2.75;;;6.60;99.90;;;;;;2089376;28;20185;-65
2021/04/01 01:59:37;;;;;;;5.00;2.60;;;6.70;99.90;;;;;;2089509;28;20194;-67
2021/04/01 02:00:49;;;;;;;7.07;3.40;;;6.70;99.90;;;;;;2089481;28;20290;-67
2021/04/01 02:01:54;;;;;;;6.05;3.30;;;6.70;99.90;;;;;;2089656;28;20167;-68
2021/04/01 02:02:57;;;;;;;7.57;3.10;;;6.70;99.90;;;;;;2089224;28;20689;-66
2021/04/01 02:04:03;;;;;;;5.80;3.03;;;6.70;99.90;;;;;;2089714;28;20186;-66
2021/04/01 02:05:08;;;;;;;6.63;3.45;;;6.60;99.90;;;;;;2089529;28;20646;-66
2021/04/01 02:06:14;;;;;;;6.47;3.00;;;6.70;99.90;;;;;;2089804;28;20253;-66
2021/04/01 02:07:14;;;;;;;6.70;2.65;;;6.70;99.90;;;;;;2089445;28;20186;-66
2021/04/01 02:08:15;;;;;;;4.13;2.60;;;6.60;99.90;;;;;;2089617;28;20202;-67
2021/04/01 02:09:16;;;;;;;4.20;2.90;;;6.60;99.90;;;;;;2089226;28;20201;-67
2021/04/01 02:10:20;;;;;;;5.57;2.77;;;6.50;99.90;;;;;;2089559;28;20674;-66
2021/04/01 02:11:21;;;;;;;4.80;2.80;;;6.50;99.90;;;;;;2088735;28;20228;-66
2021/04/01 02:12:21;;;;;;;7.10;2.53;;;6.50;99.90;;;;;;2089578;28;20619;-67
2021/04/01 02:13:23;;;;;;;4.30;3.10;;;6.50;99.90;;;;;;2089345;28;20178;-67
2021/04/01 02:14:24;;;;;;;7.88;2.80;;;6.50;99.90;;;;;;2089442;28;20264;-66
2021/04/01 02:15:28;;;;;;;4.67;2.93;;;6.40;99.90;;;;;;2089078;28;20244;-65
2021/04/01 02:16:29;;;;;;;5.68;3.00;;;6.40;99.90;;;;;;2089517;28;20232;-66
2021/04/01 02:17:29;;;;;;;7.30;3.53;;;6.40;99.90;;;;;;2089411;28;20183;-66
2021/04/01 02:18:30;;;;;;;5.37;2.80;;;6.40;99.90;;;;;;2089570;28;20329;-66
2021/04/01 02:19:31;;;;;;;5.87;2.90;;;6.40;99.90;;;;;;2089513;28;20188;-65
2021/04/01 02:20:39;;;;;;;3.40;2.90;;;6.40;99.90;;;;;;2089337;28;20184;-65
2021/04/01 02:21:40;;;;;;;7.18;2.72;;;6.40;99.90;;;;;;2088764;28;20301;-65
2021/04/01 02:22:41;;;;;;;4.87;3.23;;;6.40;99.90;;;;;;2089404;28;20199;-65
2021/04/01 02:23:42;;;;;;;7.43;3.10;;;6.30;99.90;;;;;;2089581;28;20178;-66
2021/04/01 02:24:42;;;;;;;6.53;3.03;;;6.30;99.90;;;;;;2089552;28;20282;-66
2021/04/01 02:25:45;;;;;;;8.60;3.30;;;6.40;99.90;;;;;;2089262;28;20182;-66
2021/04/01 02:26:46;;;;;;;7.05;2.95;;;6.40;99.90;;;;;;2089419;28;20190;-65
2021/04/01 02:27:47;;;;;;;8.83;3.03;;;6.40;99.90;;;;;;2089343;28;20186;-66
2021/04/01 02:28:48;;;;;;;7.28;3.10;;;6.40;99.90;;;;;;2089211;28;20191;-66
2021/04/01 02:29:48;;;;;;;4.70;2.87;;;6.40;99.90;;;;;;2089537;28;20679;-66
2021/04/01 02:30:53;;;;;;;5.40;2.53;;;6.40;99.90;;;;;;2088857;28;20410;-66
2021/04/01 02:31:54;;;;;;;5.68;3.03;;;6.30;99.90;;;;;;2089280;28;20177;-66
2021/04/01 02:32:54;;;;;;;3.67;2.70;;;6.30;99.90;;;;;;2089129;28;20243;-66
2021/04/01 02:33:55;;;;;;;6.23;3.03;;;6.30;99.90;;;;;;2089069;28;20209;-66
2021/04/01 02:34:56;;;;;;;4.13;2.67;;;6.30;99.90;;;;;;2088599;28;20178;-66
2021/04/01 02:35:57;;;;;;;4.13;2.83;;;6.30;99.90;;;;;;2089380;28;20168;-67
2021/04/01 02:36:58;;;;;;;5.53;2.90;;;6.30;99.90;;;;;;2080397;28;20722;-66
2021/04/01 02:37:59;;;;;;;4.18;2.80;;;6.30;99.90;;;;;;2080495;28;20624;-66
2021/04/01 02:39:00;;;;;;;5.17;2.90;;;6.30;99.90;;;;;;2089138;28;20193;-66
2021/04/01 02:40:00;;;;;;;5.17;2.97;;;6.30;99.90;;;;;;2085755;28;20252;-65
2021/04/01 02:41:02;;;;;;;8.07;3.07;;;6.30;99.90;;;;;;2088690;28;20199;-67
2021/04/01 02:42:03;;;;;;;6.43;2.75;;;6.30;99.90;;;;;;2089009;28;20362;-66
2021/04/01 02:43:05;;;;;;;8.27;3.38;;;6.30;99.90;;;;;;2089355;28;20195;-66
2021/04/01 02:44:06;;;;;;;5.63;3.00;;;6.30;99.90;;;;;;2089269;28;20195;-65
2021/04/01 02:45:11;;;;;;;3.67;2.97;;;6.20;99.90;;;;;;2089368;28;20719;-67
2021/04/01 02:46:13;;;;;;;6.60;3.03;;;6.20;99.90;;;;;;2089330;28;20176;-67
2021/04/01 02:47:14;;;;;;;5.07;2.80;;;6.20;99.90;;;;;;2089203;28;20244;-67
2021/04/01 02:48:14;;;;;;;7.57;3.00;;;6.20;99.90;;;;;;2089179;28;20183;-66
2021/04/01 02:49:15;;;;;;;7.57;2.83;;;6.20;99.90;;;;;;2089016;28;20199;-66
2021/04/01 02:50:17;;;;;;;5.07;2.97;;;6.20;99.90;;;;;;2089289;28;20240;-67
2021/04/01 02:51:17;;;;;;;6.43;2.90;;;6.20;99.90;;;;;;2088654;28;20190;-66
2021/04/01 02:52:18;;;;;;;5.97;2.70;;;6.20;99.90;;;;;;2089133;28;20193;-66
2021/04/01 02:53:19;;;;;;;9.83;2.93;;;6.20;99.90;;;;;;2089064;28;20177;-66
2021/04/01 02:54:20;;;;;;;5.85;2.88;;;6.20;99.90;;;;;;2089264;28;20186;-66
2021/04/01 02:55:21;;;;;;;4.63;2.70;;;6.20;99.90;;;;;;2089137;28;20552;-65
2021/04/01 02:56:21;;;;;;;5.37;2.73;;;6.20;99.90;;;;;;2089206;28;20189;-67
2021/04/01 02:57:22;;;;;;;6.70;3.17;;;6.30;99.90;;;;;;2089206;28;20777;-66
2021/04/01 02:58:24;;;;;;;5.13;2.87;;;6.30;99.90;;;;;;2089051;28;20182;-66
2021/04/01 02:59:25;;;;;;;6.40;3.05;;;6.30;99.90;;;;;;2089199;28;20555;-65
2021/04/01 03:00:29;;;;;;;4.80;2.80;;;6.30;99.90;;;;;;2089093;28;20214;-67
2021/04/01 03:01:29;;;;;;;3.88;2.92;;;6.30;99.90;;;;;;2088614;28;20692;-66
2021/04/01 03:02:30;;;;;;;4.17;2.70;;;6.20;99.90;;;;;;2089037;28;20211;-67
2021/04/01 03:03:36;;;;;;;4.10;3.30;;;6.20;99.90;;;;;;2088829;28;20214;-65
2021/04/01 03:04:38;;;;;;;5.75;2.90;;;6.30;99.90;;;;;;2089268;28;20205;-65
2021/04/01 03:05:39;;;;;;;6.50;2.90;;;6.30;99.90;;;;;;2089250;28;20185;-65
2021/04/01 03:06:40;;;;;;;6.28;3.03;;;6.30;99.90;;;;;;2089205;28;20240;-68
2021/04/01 03:07:40;;;;;;;6.87;3.10;;;6.30;99.90;;;;;;2089221;28;20179;-67
2021/04/01 03:08:41;;;;;;;6.13;2.60;;;6.20;99.90;;;;;;2089198;28;20173;-66
2021/04/01 03:09:42;;;;;;;4.47;2.80;;;6.20;99.90;;;;;;2089235;28;20185;-68
2021/04/01 03:10:43;;;;;;;4.85;3.15;;;6.20;99.90;;;;;;2089317;28;20227;-66
2021/04/01 03:11:44;;;;;;;7.87;3.20;;;6.20;99.90;;;;;;2080036;28;20200;-67
2021/04/01 03:12:45;;;;;;;6.00;3.20;;;6.20;99.90;;;;;;2080342;28;20859;-67
2021/04/01 03:13:45;;;;;;;4.90;2.70;;;6.20;99.90;;;;;;2089358;28;20171;-65
2021/04/01 03:14:46;;;;;;;7.13;3.00;;;6.20;99.90;;;;;;2089217;28;20177;-66
2021/04/01 03:15:51;;;;;;;4.40;3.03;;;6.20;99.90;;;;;;2089190;28;20172;-65
2021/04/01 03:16:51;;;;;;;5.10;2.92;;;6.20;99.90;;;;;;2089209;28;20193;-65
2021/04/01 03:17:52;;;;;;;5.73;2.90;;;6.10;99.90;;;;;;2088961;28;20186;-66
2021/04/01 03:18:53;;;;;;;3.40;2.73;;;6.20;99.90;;;;;;2089155;28;20273;-65
2021/04/01 03:19:54;;;;;;;7.57;3.10;;;6.10;99.90;;;;;;2089013;28;20183;-65
2021/04/01 03:20:54;;;;;;;5.60;2.73;;;6.10;99.90;;;;;;2079882;28;20186;-66
2021/04/01 03:21:55;;;;;;;8.17;3.00;;;6.10;99.90;;;;;;2080366;28;20342;-65
2021/04/01 03:22:56;;;;;;;6.53;2.47;;;6.10;99.90;;;;;;2089009;28;20266;-65
2021/04/01 03:23:56;;;;;;;6.90;2.80;;;6.10;99.90;;;;;;2089044;28;20183;-67
2021/04/01 03:24:57;;;;;;;6.37;2.83;;;6.10;99.90;;;;;;2089050;28;20609;-65
2021/04/01 03:25:59;;;;;;;7.63;2.93;;;6.10;99.90;;;;;;2088826;28;20185;-66
2021/04/01 03:26:59;;;;;;;5.20;2.83;;;6.10;99.90;;;;;;2088997;28;20976;-66
2021/04/01 03:28:01;;;;;;;6.83;3.50;;;6.10;99.90;;;;;;2088891;28;20187;-66
2021/04/01 03:29:02;;;;;;;6.50;2.80;;;6.20;99.90;;;;;;2088964;28;20210;-66
2021/04/01 03:30:13;;;;;;;5.00;2.60;;;6.10;99.90;;;;;;2088939;28;20609;-66
2021/04/01 03:31:14;;;;;;;3.70;2.55;;;6.10;99.90;;;;;;2079441;28;20215;-65
2021/04/01 03:32:14;;;;;;;4.93;2.67;;;6.10;99.90;;;;;;2080529;28;20188;-67
2021/04/01 03:33:15;;;;;;;6.30;3.23;;;6.10;99.90;;;;;;2089038;28;20226;-66
2021/04/01 03:34:16;;;;;;;5.93;3.33;;;6.10;99.90;;;;;;2089048;28;20711;-65
2021/04/01 03:35:22;;;;;;;11.97;3.07;;;6.10;99.90;;;;;;2089107;28;20662;-67
2021/04/01 03:36:23;;;;;;;9.73;2.70;;;6.10;99.90;;;;;;2089025;28;20185;-66
2021/04/01 03:37:24;;;;;;;5.43;2.90;;;6.10;99.90;;;;;;2089093;28;20183;-66
2021/04/01 03:38:25;;;;;;;6.80;3.13;;;6.10;99.90;;;;;;2088984;28;20188;-66
2021/04/01 03:39:26;;;;;;;7.32;2.78;;;6.10;99.90;;;;;;2088998;28;20188;-66
2021/04/01 03:40:27;;;;;;;5.03;3.10;;;6.10;99.90;;;;;;2089103;28;20194;-66
2021/04/01 03:41:28;;;;;;;5.47;3.00;;;6.10;99.90;;;;;;2088310;28;20839;-66
2021/04/01 03:42:28;;;;;;;4.97;3.00;;;6.00;99.90;;;;;;2088937;28;20528;-65
2021/04/01 03:43:29;;;;;;;9.63;3.13;;;6.00;99.90;;;;;;2085715;28;20211;-66
2021/04/01 03:44:30;;;;;;;7.27;2.93;;;6.00;99.90;;;;;;2089047;28;20556;-65
2021/04/01 03:45:31;;;;;;;7.27;2.80;;;6.00;99.90;;;;;;2089073;28;20525;-67
2021/04/01 03:46:32;;;;;;;6.72;2.92;;;6.00;99.90;;;;;;2090617;28;20178;-64
2021/04/01 03:47:32;;;;;;;6.17;2.57;;;6.00;99.90;;;;;;2090520;28;20553;-65
2021/04/01 03:48:33;;;;;;;6.97;3.13;;;6.00;99.90;;;;;;2090365;28;20185;-65
2021/04/01 03:49:34;;;;;;;5.70;2.87;;;6.00;99.90;;;;;;2090618;28;20186;-68
2021/04/01 03:50:35;;;;;;;6.30;3.10;;;6.00;99.90;;;;;;2090630;28;20180;-66
2021/04/01 03:51:35;;;;;;;4.80;2.77;;;6.00;99.90;;;;;;2089678;28;20176;-65
2021/04/01 03:52:37;;;;;;;4.77;3.00;;;6.00;99.90;;;;;;2090095;28;20239;-65
2021/04/01 03:53:38;;;;;;;6.93;2.88;;;6.00;99.90;;;;;;2081775;28;20174;-66
2021/04/01 03:54:39;;;;;;;5.63;2.70;;;6.00;99.90;;;;;;2081763;28;20554;-66
2021/04/01 03:55:43;;;;;;;4.60;2.90;;;6.10;99.90;;;;;;2090523;28;20175;-67
2021/04/01 03:56:48;;;;;;;7.00;3.08;;;6.10;99.90;;;;;;2090367;28;20233;-65
2021/04/01 03:57:52;;;;;;;8.32;2.90;;;6.10;99.90;;;;;;2090517;28;20247;-66
2021/04/01 04:00:09;;;;;;;7.90;3.13;;;6.10;99.90;;;;;;2090457;28;20197;-66
2021/04/01 04:05:55;;;;;;;4.30;2.75;;;6.00;99.90;;;;;;2082816;28;20690;-67
2021/04/01 04:07:29;;;;;;;4.95;2.90;;;6.00;99.90;;;;;;2090651;28;20174;-66
2021/04/01 04:11:56;;;;;;;5.03;2.77;;;6.10;99.90;;;;;;2089974;28;20185;-66
2021/04/01 04:14:07;;;;;;;5.03;2.60;;;6.00;99.90;;;;;;2090296;28;20176;-66
2021/04/01 04:15:16;;;;;;;4.47;2.53;;;6.00;99.90;;;;;;2090499;28;20161;-67
2021/04/01 04:16:17;;;;;;;6.45;2.80;;;6.00;99.90;;;;;;2090585;28;20181;-67
2021/04/01 04:17:17;;;;;;;5.15;2.55;;;5.90;99.90;;;;;;2090384;28;20174;-67
2021/04/01 04:18:19;;;;;;;7.20;3.30;;;5.90;99.90;;;;;;2090354;28;20193;-66
2021/04/01 04:19:20;;;;;;;4.32;2.50;;;6.00;99.90;;;;;;2090226;28;20186;-66
2021/04/01 04:20:21;;;;;;;5.30;3.20;;;6.00;99.90;;;;;;2090483;28;20193;-66
2021/04/01 04:21:22;;;;;;;4.88;2.88;;;6.00;99.90;;;;;;2089590;28;20181;-67
2021/04/01 04:22:23;;;;;;;6.53;2.90;;;6.00;99.90;;;;;;2090294;28;20214;-66
2021/04/01 04:23:24;;;;;;;5.40;2.60;;;5.90;99.90;;;;;;2090380;28;20278;-65
2021/04/01 04:24:25;;;;;;;7.80;3.10;;;6.00;99.90;;;;;;2090293;28;20488;-67
2021/04/01 04:25:26;;;;;;;5.57;2.90;;;6.00;99.90;;;;;;2090222;28;20265;-67
2021/04/01 04:26:27;;;;;;;5.05;2.90;;;5.90;99.90;;;;;;2090263;28;20186;-66
2021/04/01 04:28:32;;;;;;;3.67;2.67;;;5.90;99.90;;;;;;2090065;28;20192;-66
2021/04/01 04:29:33;;;;;;;7.65;3.10;;;6.00;99.90;;;;;;2089978;28;20319;-66
2021/04/01 04:30:34;;;;;;;4.80;2.80;;;5.90;99.90;;;;;;2089913;28;20672;-67
2021/04/01 04:31:35;;;;;;;8.53;2.93;;;6.00;99.90;;;;;;2089423;28;20176;-67
2021/04/01 04:32:36;;;;;;;5.67;2.67;;;6.00;99.90;;;;;;2090022;28;20768;-67
2021/04/01 04:33:37;;;;;;;7.73;3.30;;;6.00;99.90;;;;;;2090105;28;20653;-68
2021/04/01 04:34:38;;;;;;;6.40;2.90;;;5.90;99.90;;;;;;2090023;28;20410;-66
2021/04/01 04:35:38;;;;;;;7.60;3.13;;;5.90;99.90;;;;;;2090064;28;20663;-66
2021/04/01 04:36:39;;;;;;;7.03;2.83;;;5.90;99.90;;;;;;2090026;28;20183;-66
2021/04/01 04:37:40;;;;;;;5.60;3.10;;;5.90;99.90;;;;;;2089994;28;20169;-66
2021/04/01 04:38:40;;;;;;;6.00;2.80;;;5.90;99.90;;;;;;2089962;28;20672;-67
2021/04/01 04:39:41;;;;;;;5.80;2.57;;;5.90;99.90;;;;;;2089933;28;20182;-66
2021/04/01 04:40:42;;;;;;;5.77;3.10;;;5.90;99.90;;;;;;2089729;28;20744;-66
2021/04/01 04:41:43;;;;;;;6.73;2.57;;;6.00;99.90;;;;;;2089578;28;20264;-67
2021/04/01 04:42:43;;;;;;;4.97;3.03;;;5.90;99.90;;;;;;2089913;28;20235;-67
2021/04/01 04:43:44;;;;;;;5.97;2.90;;;5.90;99.90;;;;;;2089961;28;20213;-65
2021/04/01 04:44:45;;;;;;;5.40;3.13;;;5.90;99.90;;;;;;2089995;28;20174;-68
2021/04/01 04:45:46;;;;;;;5.28;3.03;;;5.90;99.90;;;;;;2090090;28;20186;-65
2021/04/01 04:46:46;;;;;;;7.70;3.30;;;5.90;99.90;;;;;;2090064;28;20183;-65
2021/04/01 04:47:47;;;;;;;7.07;3.50;;;5.90;99.90;;;;;;2090153;28;20177;-65
2021/04/01 04:48:49;;;;;;;5.23;3.50;;;5.80;99.90;;;;;;2090116;28;20725;-65
2021/04/01 04:49:49;;;;;;;5.97;3.38;;;5.80;99.90;;;;;;2090318;28;20185;-67
2021/04/01 04:50:50;;;;;;;5.67;3.27;;;5.80;99.90;;;;;;2089293;28;20185;-66
2021/04/01 04:51:51;;;;;;;6.63;2.85;;;5.80;99.90;;;;;;2090025;28;20186;-66
2021/04/01 04:52:52;;;;;;;4.23;2.90;;;5.80;99.90;;;;;;2089918;28;20234;-65
2021/04/01 04:53:53;;;;;;;2.90;2.57;;;5.80;99.90;;;;;;2090172;28;20272;-67
2021/04/01 04:54:54;;;;;;;5.78;2.90;;;5.70;99.90;;;;;;2090139;28;20181;-66
2021/04/01 04:56:08;;;;;;;7.40;3.13;;;5.80;99.90;;;;;;2090173;28;20827;-67
2021/04/01 04:57:34;;;;;;;8.50;3.53;;;5.80;99.90;;;;;;2089508;28;20402;-66
2021/04/01 04:58:51;;;;;;;6.45;3.33;;;5.70;99.90;;;;;;2090282;28;20161;-67
2021/04/01 05:04:40;;;;;;;5.53;2.80;;;5.80;99.90;;;;;;2090926;28;20170;-66
2021/04/01 05:05:41;;;;;;;7.18;3.45;;;5.80;99.90;;;;;;2090596;28;20209;-66
2021/04/01 05:06:55;;;;;;;6.17;2.93;;;5.80;99.90;;;;;;2090313;28;20690;-66
2021/04/01 05:07:55;;;;;;;4.97;2.90;;;5.80;99.90;;;;;;2090132;28;20669;-65
2021/04/01 05:08:56;;;;;;;6.30;3.53;;;5.80;99.90;;;;;;2089931;28;20243;-65
2021/04/01 05:09:57;;;;;;;7.67;3.27;;;5.80;99.90;;;;;;2089713;28;20215;-68
2021/04/01 05:10:58;;;;;;;7.07;3.00;;;5.80;99.90;;;;;;2089175;28;20719;-66
2021/04/01 05:11:59;;;;;;;8.67;3.03;;;5.80;99.90;;;;;;2089822;28;20181;-66
2021/04/01 05:13:09;;;;;;;13.70;4.13;;;5.90;99.90;;;;;;2089851;28;20244;-66
2021/04/01 05:14:09;;;;;;;9.18;3.67;;;5.90;99.90;;;;;;2089969;28;20193;-66
2021/04/01 05:15:10;;;;;;;15.50;3.47;;;5.90;99.90;;;;;;2090032;28;20181;-65
2021/04/01 05:16:11;;;;;;;9.82;3.58;;;5.90;99.90;;;;;;2089837;28;20186;-67
2021/04/01 05:17:16;;;;;;;8.87;3.37;;;5.90;99.90;;;;;;2090093;28;20185;-65
2021/04/01 05:18:29;;;;;;;9.70;2.85;;;5.90;99.90;;;;;;2089917;28;20177;-66
2021/04/01 05:19:31;;;;;;;10.77;3.47;;;5.90;99.90;;;;;;2089983;28;20175;-67
2021/04/01 05:20:32;;;;;;;7.28;3.20;;;5.90;99.90;;;;;;2089760;28;20247;-65
2021/04/01 05:21:43;;;;;;;6.40;4.00;;;6.00;99.90;;;;;;2089223;28;20185;-66
2021/04/01 05:22:51;;;;;;;5.30;3.72;;;6.00;99.90;;;;;;2089675;28;20243;-67
2021/04/01 05:23:54;;;;;;;8.05;4.00;;;6.10;99.90;;;;;;2089615;28;20178;-66
2021/04/01 05:24:55;;;;;;;6.30;3.35;;;6.10;99.90;;;;;;2089847;28;20533;-65
2021/04/01 05:28:26;;;;;;;4.20;3.25;;;6.10;99.90;;;;;;2089711;28;20192;-66
2021/04/01 05:29:29;;;;;;;4.65;3.40;;;6.10;99.90;;;;;;2089735;28;20218;-66
2021/04/01 05:30:30;;;;;;;5.97;3.60;;;6.00;99.90;;;;;;2089776;28;20193;-65
2021/04/01 05:31:35;;;;;;;8.37;3.20;;;6.10;99.90;;;;;;2089221;28;20565;-66
2021/04/01 05:32:42;;;;;;;5.70;3.10;;;6.10;99.90;;;;;;2089658;28;20197;-67
2021/04/01 05:33:45;;;;;;;4.70;3.13;;;6.10;99.90;;;;;;2089942;28;20246;-65
2021/04/01 05:34:46;;;;;;;9.43;3.00;;;6.10;99.90;;;;;;2089613;28;20183;-65
2021/04/01 05:35:47;;;;;;;6.27;3.57;;;6.10;99.90;;;;;;2089831;28;20257;-65
2021/04/01 05:36:47;;;;;;;7.53;3.13;;;6.10;99.90;;;;;;2089653;28;20218;-66
2021/04/01 05:37:49;;;;;;;6.63;3.13;;;6.20;99.90;;;;;;2089887;28;20636;-66
2021/04/01 05:38:51;;;;;;;5.78;3.55;;;6.20;99.90;;;;;;2089527;28;20681;-67
2021/04/01 05:39:54;;;;;;;7.28;3.05;;;6.20;99.90;;;;;;2089590;28;20592;-66
2021/04/01 05:40:55;;;;;;;4.55;2.90;;;6.20;99.90;;;;;;2088852;28;20556;-65
2021/04/01 05:41:58;;;;;;;7.83;2.90;;;6.30;99.90;;;;;;2089567;28;20186;-66
2021/04/01 05:43:10;;;;;;;6.57;2.92;;;6.30;99.90;;;;;;2089405;28;20591;-66
2021/04/01 05:45:34;;;;;;;5.45;3.00;;;6.30;99.90;;;;;;2089625;28;20166;-66
2021/04/01 05:47:47;;;;;;;6.90;3.10;;;6.30;99.90;;;;;;2080770;28;20187;-66
2021/04/01 05:49:12;;;;;;;4.13;2.83;;;6.40;99.90;;;;;;2082328;28;20176;-66
2021/04/01 06:03:18;;;;;;;6.10;3.08;;;6.60;99.90;;;;;;2089729;28;20674;-66
2021/04/01 06:04:29;;;;;;;4.93;3.15;;;6.70;99.90;;;;;;2089485;28;20811;-65